Time;durP1;ratioP1;P1;durP2;ratioP2;P2;SDS_P1;SDS_P2;PMS_P1;PMS_P2;Temp;Humidity;BMP_temperature;BMP_pressure;BME280_temperature;BME280_humidity;BME280_pressure;Samples;Min_cycle;Max_cycle;Signal;HPM_P1;HPM_P2
2021/05/11 00:07:57;;;;;;;6.32;5.15;;;14.40;99.90;;;;;;6670020;89;20216;-77
2021/05/11 00:17:58;;;;;;;8.77;5.28;;;14.30;99.90;;;;;;6668530;89;20224;-76
2021/05/11 00:27:59;;;;;;;7.53;5.28;;;14.40;99.90;;;;;;6667559;89;20233;-76
2021/05/11 00:37:59;;;;;;;6.25;4.90;;;14.30;99.90;;;;;;6666874;89;20234;-77
2021/05/11 00:48:00;;;;;;;9.10;5.15;;;14.40;99.90;;;;;;6684808;88;20403;-76
2021/05/11 00:58:01;;;;;;;7.15;5.43;;;14.40;99.90;;;;;;6683912;88;20203;-76
2021/05/11 01:08:02;;;;;;;9.15;6.15;;;14.30;99.90;;;;;;6680029;88;20195;-76
2021/05/11 01:18:13;;;;;;;8.25;5.55;;;14.00;99.90;;;;;;6682941;88;20634;-77
2021/05/11 01:29:11;;;;;;;7.65;5.45;;;14.00;99.90;;;;;;6681692;88;20223;-76
2021/05/11 01:49:05;;;;;;;8.95;6.25;;;13.90;99.90;;;;;;6678271;88;20211;-76
2021/05/11 02:09:54;;;;;;;10.27;6.50;;;13.90;99.90;;;;;;6678321;88;20186;-75
2021/05/11 02:30:15;;;;;;;11.77;7.85;;;13.90;99.90;;;;;;6683017;88;20253;-76
2021/05/11 02:40:21;;;;;;;10.18;6.85;;;13.80;99.90;;;;;;6684280;88;20186;-76
2021/05/11 02:50:26;;;;;;;9.65;7.12;;;13.80;99.90;;;;;;6684014;88;20197;-76
2021/05/11 03:00:28;;;;;;;10.45;6.47;;;13.80;99.90;;;;;;6685240;88;20191;-76
2021/05/11 03:10:28;;;;;;;9.57;6.10;;;13.70;99.90;;;;;;6676591;88;20231;-76
2021/05/11 03:20:29;;;;;;;9.27;6.62;;;13.70;99.90;;;;;;6687089;88;20320;-76
2021/05/11 03:30:29;;;;;;;8.98;6.95;;;13.70;99.90;;;;;;6680741;88;20775;-76
2021/05/11 03:40:30;;;;;;;9.65;7.70;;;13.70;99.90;;;;;;6683829;88;20192;-76
2021/05/11 03:50:31;;;;;;;9.57;7.15;;;13.70;99.90;;;;;;6684008;88;20604;-76
2021/05/11 04:00:31;;;;;;;11.10;7.70;;;13.70;99.90;;;;;;6683975;88;20287;-76
2021/05/11 04:20:33;;;;;;;9.18;6.55;;;13.80;99.90;;;;;;6683399;88;20208;-76
2021/05/11 04:30:33;;;;;;;6.05;4.60;;;13.80;99.90;;;;;;6682980;88;20226;-76
2021/05/11 04:40:34;;;;;;;4.30;3.42;;;13.90;99.90;;;;;;6683545;88;20218;-76
2021/05/11 04:50:35;;;;;;;7.07;5.25;;;13.80;99.90;;;;;;6682095;88;20316;-76
2021/05/11 05:00:37;;;;;;;7.03;5.50;;;13.80;99.90;;;;;;6682389;88;20188;-76
2021/05/11 05:10:38;;;;;;;7.95;4.35;;;13.90;99.90;;;;;;6679819;88;20233;-76
2021/05/11 05:20:38;;;;;;;6.65;5.30;;;13.90;99.90;;;;;;6678435;88;20315;-76
2021/05/11 05:30:39;;;;;;;6.57;4.80;;;14.00;99.90;;;;;;6680769;88;20187;-76
2021/05/11 05:40:41;;;;;;;4.87;3.35;;;14.10;99.90;;;;;;6681154;88;20248;-76
2021/05/11 05:50:41;;;;;;;5.18;2.70;;;14.30;99.90;;;;;;6682243;88;20316;-76
2021/05/11 06:00:43;;;;;;;4.53;2.70;;;14.40;99.90;;;;;;6683680;88;20301;-76
2021/05/11 06:10:43;;;;;;;5.40;3.10;;;14.40;99.90;;;;;;6683435;88;20292;-75
2021/05/11 06:20:44;;;;;;;4.47;3.00;;;14.50;99.90;;;;;;6688427;88;20879;-77
2021/05/11 06:30:44;;;;;;;5.45;3.08;;;14.60;99.90;;;;;;6686476;88;20394;-77
2021/05/11 06:40:45;;;;;;;4.57;3.47;;;14.70;99.90;;;;;;6677487;88;20340;-77
2021/05/11 07:01:06;;;;;;;5.78;4.37;;;15.90;99.90;;;;;;6674610;88;20215;-76
2021/05/11 07:11:13;;;;;;;6.78;5.30;;;16.40;99.90;;;;;;6678959;88;20234;-76
2021/05/11 07:21:13;;;;;;;8.68;6.00;;;16.20;99.90;;;;;;6681862;88;20222;-77
2021/05/11 07:31:16;;;;;;;9.23;7.10;;;16.00;99.90;;;;;;6686757;88;20247;-74
2021/05/11 07:41:18;;;;;;;8.55;6.45;;;16.10;99.90;;;;;;6689876;88;20482;-78
2021/05/11 08:32:28;;;;;;;8.25;6.25;;;17.10;99.90;;;;;;6684638;88;20201;-77
2021/05/11 08:42:31;;;;;;;10.70;6.90;;;17.10;99.90;;;;;;6681773;88;20321;-77
2021/05/11 08:53:03;;;;;;;8.85;6.75;;;16.90;99.90;;;;;;6687244;88;20795;-77
2021/05/11 09:23:54;;;;;;;8.07;6.40;;;17.90;99.90;;;;;;6683991;88;20198;-77
2021/05/11 09:34:17;;;;;;;10.40;6.97;;;17.80;99.90;;;;;;6679680;88;20219;-78
2021/05/11 10:46:47;;;;;;;5.20;4.20;;;18.40;99.90;;;;;;6681036;88;20187;-77
2021/05/11 10:56:48;;;;;;;5.50;3.83;;;18.20;99.90;;;;;;6681174;88;20235;-76
2021/05/11 11:07:01;;;;;;;6.15;4.50;;;18.00;99.90;;;;;;6682522;88;20318;-75
2021/05/11 11:17:04;;;;;;;9.10;5.50;;;17.70;99.90;;;;;;6682104;88;20198;-76
2021/05/11 11:27:05;;;;;;;10.02;4.65;;;17.40;99.90;;;;;;6682685;88;20297;-76
2021/05/11 11:37:09;;;;;;;5.87;4.05;;;17.10;99.90;;;;;;6682223;88;20192;-75
2021/05/11 11:47:12;;;;;;;6.30;4.70;;;16.90;99.90;;;;;;6681160;88;20196;-75
2021/05/11 12:08:29;;;;;;;6.20;4.45;;;16.50;99.90;;;;;;6680041;88;20195;-75
2021/05/11 12:18:12;;;;;;;6.68;4.20;;;16.80;99.90;;;;;;6681086;88;20220;-76
2021/05/11 12:28:38;;;;;;;4.35;3.60;;;17.10;99.90;;;;;;6681151;88;20192;-75
2021/05/11 12:38:38;;;;;;;3.78;2.90;;;16.80;99.90;;;;;;6678747;88;20239;-75
2021/05/11 12:48:53;;;;;;;4.53;3.60;;;17.00;99.90;;;;;;6680349;88;21030;-76
2021/05/11 12:59:12;;;;;;;6.07;3.95;;;17.00;99.90;;;;;;6681096;88;20197;-76
2021/05/11 13:09:31;;;;;;;4.80;3.60;;;16.70;99.90;;;;;;6681216;88;20321;-77
2021/05/11 13:20:03;;;;;;;5.10;2.40;;;16.70;99.90;;;;;;6680763;88;20190;-75
2021/05/11 13:40:07;;;;;;;3.67;2.33;;;16.20;99.90;;;;;;6680746;88;20235;-76
2021/05/11 13:50:11;;;;;;;2.90;2.00;;;16.20;99.90;;;;;;6680398;88;20184;-76
2021/05/11 14:10:31;;;;;;;2.20;1.40;;;16.60;99.90;;;;;;6679227;88;20191;-76
2021/05/11 14:20:31;;;;;;;2.28;1.58;;;16.70;99.90;;;;;;6680209;88;20212;-77
2021/05/11 14:30:32;;;;;;;2.55;1.50;;;17.00;99.90;;;;;;6681031;88;20253;-76
2021/05/11 14:40:33;;;;;;;2.70;1.17;;;17.10;99.90;;;;;;6682278;88;20221;-76
2021/05/11 14:50:34;;;;;;;3.00;1.60;;;17.40;99.90;;;;;;6684520;88;20199;-77
2021/05/11 15:00:34;;;;;;;4.12;1.70;;;17.30;99.90;;;;;;6691334;88;20190;-77
2021/05/11 15:10:35;;;;;;;2.78;1.48;;;17.30;99.90;;;;;;6691739;88;20280;-76
2021/05/11 15:20:36;;;;;;;3.03;1.80;;;17.40;99.90;;;;;;6688403;88;20610;-76
2021/05/11 15:30:36;;;;;;;5.32;2.30;;;17.00;99.90;;;;;;6683212;88;20241;-77
2021/05/11 15:40:39;;;;;;;4.47;3.00;;;16.50;99.90;;;;;;6683813;88;20721;-75
2021/05/11 15:50:42;;;;;;;7.20;4.80;;;15.90;99.90;;;;;;6683720;88;20213;-75
2021/05/11 16:00:46;;;;;;;10.55;7.18;;;15.40;99.90;;;;;;6686414;88;20206;-77
2021/05/11 16:10:47;;;;;;;12.48;8.43;;;15.10;99.90;;;;;;6681827;88;20716;-75
2021/05/11 16:20:47;;;;;;;12.95;7.18;;;14.90;99.90;;;;;;6683035;88;20214;-75
2021/05/11 16:30:48;;;;;;;12.67;6.83;;;14.90;99.90;;;;;;6682626;88;20608;-74
2021/05/11 16:40:49;;;;;;;9.43;6.25;;;15.10;99.90;;;;;;6681146;88;20502;-75
2021/05/11 16:50:49;;;;;;;11.43;6.65;;;15.10;99.90;;;;;;6681084;88;20266;-74
2021/05/11 17:00:50;;;;;;;11.15;6.07;;;15.30;99.90;;;;;;6682782;88;20286;-73
2021/05/11 17:10:50;;;;;;;9.07;5.63;;;15.50;99.90;;;;;;6684789;88;20277;-73
2021/05/11 17:20:51;;;;;;;9.15;4.07;;;15.50;99.90;;;;;;6685164;88;20637;-74
2021/05/11 17:30:57;;;;;;;12.73;4.57;;;15.30;99.90;;;;;;6693738;88;20336;-75
2021/05/11 17:40:59;;;;;;;9.40;4.70;;;15.30;99.90;;;;;;6689557;88;20192;-75
2021/05/11 17:51:00;;;;;;;9.77;4.97;;;15.30;99.90;;;;;;6682921;88;20256;-76
2021/05/11 18:01:00;;;;;;;8.27;4.72;;;15.40;99.90;;;;;;6685415;88;20241;-76
2021/05/11 18:11:01;;;;;;;8.18;4.45;;;15.30;99.90;;;;;;6699247;88;20658;-75
2021/05/11 18:21:01;;;;;;;9.98;4.72;;;15.20;99.90;;;;;;6699729;88;20686;-75
2021/05/11 18:31:03;;;;;;;9.40;5.10;;;15.20;99.90;;;;;;6682121;88;20725;-75
2021/05/11 18:41:04;;;;;;;8.52;5.20;;;15.10;99.90;;;;;;6681700;88;20216;-75
2021/05/11 18:51:04;;;;;;;9.43;5.05;;;15.10;99.90;;;;;;6681169;88;20266;-75
2021/05/11 19:01:05;;;;;;;9.52;4.68;;;14.90;99.90;;;;;;6681924;88;20260;-74
2021/05/11 19:11:06;;;;;;;7.53;3.00;;;14.80;99.90;;;;;;6682222;88;20274;-75
2021/05/11 19:21:08;;;;;;;7.75;2.75;;;14.60;99.90;;;;;;6681975;88;20188;-73
2021/05/11 19:31:10;;;;;;;3.08;2.03;;;14.30;99.90;;;;;;6685094;88;20207;-75
2021/05/11 19:41:11;;;;;;;4.20;2.05;;;14.10;99.90;;;;;;6688166;88;20220;-75
2021/05/11 19:51:12;;;;;;;7.20;2.10;;;14.00;99.90;;;;;;6686367;88;20321;-75
2021/05/11 20:01:15;;;;;;;4.45;1.90;;;13.90;99.90;;;;;;6685500;87;20211;-75
2021/05/11 20:11:15;;;;;;;4.37;1.80;;;13.70;99.90;;;;;;6684566;88;20198;-74
2021/05/11 20:21:16;;;;;;;6.15;2.50;;;13.80;99.90;;;;;;6685855;88;20279;-75
2021/05/11 20:31:18;;;;;;;6.15;3.17;;;13.60;99.90;;;;;;6684333;88;20707;-74
2021/05/11 20:41:18;;;;;;;6.82;3.10;;;13.40;99.90;;;;;;6685942;88;20205;-74
2021/05/11 20:51:20;;;;;;;8.20;2.80;;;13.20;99.90;;;;;;6684884;88;20662;-77
2021/05/11 21:01:21;;;;;;;5.32;2.90;;;13.20;99.90;;;;;;6684484;88;20219;-78
2021/05/11 21:11:23;;;;;;;10.43;3.45;;;13.20;99.90;;;;;;6686417;88;20236;-78
2021/05/11 21:21:24;;;;;;;8.50;3.35;;;13.20;99.90;;;;;;6696157;88;20212;-77
2021/05/11 21:31:24;;;;;;;7.65;3.37;;;13.20;99.90;;;;;;6673901;88;20262;-77
2021/05/11 21:41:25;;;;;;;7.37;3.40;;;13.30;99.90;;;;;;6686571;88;20205;-78
2021/05/11 21:51:25;;;;;;;7.37;3.78;;;13.20;99.90;;;;;;6686565;88;20337;-78
2021/05/11 22:01:26;;;;;;;8.75;3.83;;;13.20;99.90;;;;;;6683211;88;20539;-77
2021/05/11 22:11:27;;;;;;;7.25;3.42;;;13.10;99.90;;;;;;6683445;88;20671;-77
2021/05/11 22:21:28;;;;;;;7.72;4.03;;;13.20;99.90;;;;;;6684001;88;20728;-77
2021/05/11 22:31:30;;;;;;;9.07;4.28;;;13.30;99.90;;;;;;6687091;88;20277;-78
2021/05/11 22:41:34;;;;;;;10.43;4.70;;;13.20;99.90;;;;;;6686895;88;20205;-78
2021/05/11 22:51:34;;;;;;;8.65;4.78;;;13.20;99.90;;;;;;6689891;88;20191;-78
2021/05/11 23:01:35;;;;;;;10.35;4.95;;;13.10;99.90;;;;;;6689969;88;20287;-79
2021/05/11 23:11:36;;;;;;;11.50;4.18;;;13.00;99.90;;;;;;6689828;88;20199;-78
2021/05/11 23:21:36;;;;;;;6.65;3.37;;;12.90;99.90;;;;;;6686285;88;20945;-79
2021/05/11 23:31:37;;;;;;;4.40;2.60;;;13.00;99.90;;;;;;6689622;88;20245;-78
2021/05/11 23:41:39;;;;;;;5.72;2.62;;;12.90;99.90;;;;;;6689015;88;20208;-78
2021/05/11 23:51:40;;;;;;;5.80;2.42;;;12.90;99.90;;;;;;6688636;88;20556;-77
